createdAt,value
2022-11-04T00:00:13.193Z,8.86
2022-11-04T00:02:40.016Z,8.86
2022-11-04T00:05:07.809Z,8.82
2022-11-04T00:07:53.104Z,8.77
2022-11-04T00:10:39.816Z,8.80
2022-11-04T00:13:06.825Z,8.75
2022-11-04T00:15:55.790Z,8.77
2022-11-04T00:18:22.558Z,8.81
2022-11-04T00:21:07.791Z,8.84
2022-11-04T00:23:53.222Z,8.85
2022-11-04T00:26:38.468Z,8.79
2022-11-04T00:29:05.218Z,8.84
2022-11-04T00:31:50.477Z,8.71
2022-11-04T00:34:17.281Z,8.67
2022-11-04T00:36:43.987Z,8.61
2022-11-04T00:39:10.745Z,8.58
2022-11-04T00:41:37.455Z,8.53
2022-11-04T00:44:05.586Z,8.52
2022-11-04T00:46:33.855Z,8.46
2022-11-04T00:49:01.134Z,8.39
2022-11-04T00:51:28.055Z,8.41
2022-11-04T00:53:54.936Z,8.28
2022-11-04T00:56:21.778Z,8.34
2022-11-04T00:58:50.178Z,8.26
2022-11-04T01:01:20.014Z,8.20
2022-11-04T01:03:48.869Z,8.13
2022-11-04T01:06:16.030Z,8.10
2022-11-04T01:08:42.917Z,8.12
2022-11-04T01:11:10.325Z,8.05
2022-11-04T01:13:37.909Z,8.04
2022-11-04T01:16:07.663Z,7.98
2022-11-04T01:18:35.165Z,7.97
2022-11-04T01:21:05.910Z,7.91
2022-11-04T01:23:34.229Z,7.99
2022-11-04T01:26:01.214Z,7.98
2022-11-04T01:28:28.104Z,7.93
2022-11-04T01:30:54.854Z,7.88
2022-11-04T01:33:22.387Z,7.81
2022-11-04T01:35:50.555Z,7.83
2022-11-04T01:38:17.730Z,7.82
2022-11-04T01:40:44.614Z,7.82
2022-11-04T01:43:20.039Z,7.89
2022-11-04T01:45:49.761Z,7.90
2022-11-04T01:48:27.554Z,7.90
2022-11-04T01:50:55.129Z,7.73
2022-11-04T01:53:31.819Z,7.72
2022-11-04T01:56:00.452Z,7.70
2022-11-04T01:58:28.630Z,7.56
2022-11-04T02:00:55.528Z,7.56
2022-11-04T02:03:35.221Z,7.68
2022-11-04T02:06:02.896Z,7.72
2022-11-04T02:08:30.016Z,7.66
2022-11-04T02:11:00.052Z,7.68
2022-11-04T02:13:27.845Z,7.65
2022-11-04T02:16:07.343Z,7.62
2022-11-04T02:18:52.350Z,7.67
2022-11-04T02:21:25.200Z,7.70
2022-11-04T02:24:10.354Z,7.71
2022-11-04T02:27:01.547Z,7.66
2022-11-04T02:29:37.053Z,7.71
2022-11-04T02:32:13.116Z,7.62
2022-11-04T02:35:12.190Z,7.66
2022-11-04T02:37:47.930Z,7.49
2022-11-04T02:40:50.276Z,7.38
2022-11-04T02:43:28.943Z,7.40
2022-11-04T02:46:24.728Z,7.46
2022-11-04T02:48:59.476Z,7.36
2022-11-04T02:51:41.643Z,7.38
2022-11-04T02:54:08.525Z,7.39
2022-11-04T02:56:38.952Z,7.39
2022-11-04T02:59:09.896Z,7.42
2022-11-04T03:01:39.477Z,7.33
2022-11-04T03:04:14.838Z,7.34
2022-11-04T03:06:43.504Z,7.25
2022-11-04T03:09:12.310Z,7.18
2022-11-04T03:11:41.274Z,7.22
2022-11-04T03:14:25.088Z,7.15
2022-11-04T03:16:58.574Z,7.21
2022-11-04T03:19:53.466Z,7.14
2022-11-04T03:22:22.782Z,7.19
2022-11-04T03:24:49.837Z,7.16
2022-11-04T03:27:24.480Z,7.09
2022-11-04T03:29:57.351Z,6.97
2022-11-04T03:32:47.120Z,6.80
2022-11-04T03:35:15.150Z,6.83
2022-11-04T03:37:43.016Z,6.79
2022-11-04T03:40:11.100Z,6.88
2022-11-04T03:42:42.362Z,6.87
2022-11-04T03:45:10.207Z,6.90
2022-11-04T03:47:37.281Z,6.96
2022-11-04T03:50:20.632Z,6.85
2022-11-04T03:52:47.361Z,6.86
2022-11-04T03:55:14.239Z,6.96
2022-11-04T03:58:23.030Z,7.04
2022-11-04T04:00:53.683Z,6.98
2022-11-04T04:03:37.868Z,6.92
2022-11-04T04:06:15.338Z,6.90
2022-11-04T04:08:46.758Z,6.85
2022-11-04T04:11:18.381Z,6.89
2022-11-04T04:14:13.231Z,6.87
2022-11-04T04:16:43.852Z,6.89
2022-11-04T04:21:52.527Z,6.88
2022-11-04T04:24:39.258Z,6.84
2022-11-04T04:27:24.593Z,6.81
2022-11-04T04:29:52.124Z,6.67
2022-11-04T04:32:20.878Z,6.66
2022-11-04T04:34:47.675Z,6.67
2022-11-04T04:37:23.420Z,6.61
2022-11-04T04:40:11.519Z,6.62
2022-11-04T04:42:57.368Z,6.57
2022-11-04T04:45:38.222Z,6.58
2022-11-04T04:48:05.847Z,6.54
2022-11-04T04:50:36.432Z,6.45
2022-11-04T04:53:04.284Z,6.49
2022-11-04T04:55:38.852Z,6.44
2022-11-04T04:58:09.040Z,6.45
2022-11-04T05:00:35.789Z,6.44
2022-11-04T05:03:02.510Z,6.46
2022-11-04T05:05:29.306Z,6.43
2022-11-04T05:07:56.046Z,6.46
2022-11-04T05:10:22.830Z,6.46
2022-11-04T05:13:08.202Z,6.52
2022-11-04T05:15:44.473Z,6.51
2022-11-04T05:18:20.245Z,6.58
2022-11-04T05:20:47.154Z,6.57
2022-11-04T05:23:14.841Z,6.58
2022-11-04T05:25:42.306Z,6.59
2022-11-04T05:28:09.757Z,6.60
2022-11-04T05:30:37.899Z,6.55
2022-11-04T05:33:05.249Z,6.47
2022-11-04T05:35:33.030Z,6.49
2022-11-04T05:37:59.804Z,6.56
2022-11-04T05:40:26.657Z,6.64
2022-11-04T05:42:53.372Z,6.70
2022-11-04T05:45:20.372Z,6.72
2022-11-04T05:47:47.194Z,6.78
2022-11-04T05:50:13.884Z,6.92
2022-11-04T05:52:40.698Z,6.89
2022-11-04T05:55:07.785Z,7.08
2022-11-04T05:57:35.664Z,7.18
2022-11-04T06:00:02.659Z,7.27
2022-11-04T06:02:31.127Z,7.37
2022-11-04T06:04:58.024Z,7.39
2022-11-04T06:07:24.703Z,7.50
2022-11-04T06:09:51.438Z,7.50
2022-11-04T06:12:18.326Z,7.57
2022-11-04T06:14:45.170Z,7.68
2022-11-04T06:17:19.798Z,7.84
2022-11-04T06:19:46.902Z,7.96
2022-11-04T06:22:15.315Z,8.11
2022-11-04T06:24:42.438Z,8.31
2022-11-04T06:27:09.878Z,8.52
2022-11-04T06:29:40.114Z,8.69
2022-11-04T06:32:08.201Z,8.83
2022-11-04T06:34:35.041Z,9.04
2022-11-04T06:37:01.751Z,9.24
2022-11-04T06:39:28.529Z,9.46
2022-11-04T06:41:59.806Z,9.67
2022-11-04T06:44:29.137Z,9.89
2022-11-04T06:46:55.912Z,10.08
2022-11-04T06:49:25.527Z,10.35
2022-11-04T06:51:52.508Z,10.54
2022-11-04T06:54:19.301Z,10.77
2022-11-04T06:56:46.587Z,11.00
2022-11-04T06:59:19.200Z,11.25
2022-11-04T07:01:47.061Z,11.44
2022-11-04T07:04:13.934Z,11.65
2022-11-04T07:06:44.928Z,11.98
2022-11-04T07:09:15.831Z,12.26
2022-11-04T07:11:44.164Z,12.51
2022-11-04T07:14:11.359Z,12.72
2022-11-04T07:16:38.534Z,12.99
2022-11-04T07:19:05.841Z,13.23
2022-11-04T07:21:32.782Z,13.40
2022-11-04T07:24:01.103Z,13.64
2022-11-04T07:26:27.691Z,13.89
2022-11-04T07:28:54.448Z,14.11
2022-11-04T07:31:22.280Z,14.18
2022-11-04T07:33:51.400Z,14.41
2022-11-04T07:36:18.990Z,14.56
2022-11-04T07:38:46.209Z,14.91
2022-11-04T07:41:13.674Z,15.14
2022-11-04T07:43:40.520Z,15.46
2022-11-04T07:46:11.105Z,15.65
2022-11-04T07:48:38.400Z,15.84
2022-11-04T07:51:07.431Z,16.07
2022-11-04T07:53:34.425Z,16.24
2022-11-04T07:56:04.824Z,16.45
2022-11-04T07:58:31.710Z,16.67
2022-11-04T08:01:00.301Z,16.87
2022-11-04T08:03:27.502Z,17.17
2022-11-04T08:05:58.722Z,17.39
2022-11-04T08:08:26.348Z,17.55
2022-11-04T08:10:58.729Z,17.60
2022-11-04T08:13:28.664Z,17.83
2022-11-04T08:15:56.115Z,17.99
2022-11-04T08:18:23.318Z,18.06
2022-11-04T08:20:50.940Z,18.29
2022-11-04T08:23:18.520Z,18.64
2022-11-04T08:25:45.750Z,18.86
2022-11-04T08:28:17.437Z,19.10
2022-11-04T08:30:56.772Z,19.33
2022-11-04T08:33:27.858Z,19.49
2022-11-04T08:35:55.482Z,19.61
2022-11-04T08:38:22.218Z,19.75
2022-11-04T08:40:49.354Z,19.80
2022-11-04T08:43:16.374Z,20.07
2022-11-04T08:45:45.374Z,20.28
2022-11-04T08:48:13.511Z,20.43
2022-11-04T08:50:40.378Z,20.49
2022-11-04T08:53:07.494Z,20.80
2022-11-04T08:55:36.005Z,20.99
2022-11-04T08:58:03.332Z,21.17
2022-11-04T09:00:30.564Z,21.50
2022-11-04T09:03:00.177Z,21.56
2022-11-04T09:05:27.373Z,21.83
2022-11-04T09:07:55.381Z,21.83
2022-11-04T09:10:22.235Z,21.79
2022-11-04T09:12:49.336Z,22.00
2022-11-04T09:15:16.385Z,22.03
2022-11-04T09:17:46.366Z,21.78
2022-11-04T09:20:13.217Z,21.80
2022-11-04T09:22:53.163Z,22.23
2022-11-04T09:25:45.351Z,22.62
2022-11-04T09:28:12.303Z,22.76
2022-11-04T09:43:05.147Z,22.99
2022-11-04T09:57:17.489Z,24.00
2022-11-04T10:00:04.205Z,24.51
2022-11-04T10:03:23.388Z,24.81
2022-11-04T10:06:20.810Z,25.22
2022-11-04T10:09:21.660Z,25.76
2022-11-04T10:12:46.082Z,26.14
2022-11-04T10:16:01.948Z,26.04
2022-11-04T10:18:47.652Z,25.95
2022-11-04T10:21:48.706Z,25.60
2022-11-04T10:25:03.962Z,24.83
2022-11-04T10:27:49.503Z,24.56
2022-11-04T13:49:00.211Z,21.13
2022-11-04T13:51:45.051Z,20.88
2022-11-04T13:54:32.088Z,20.92
2022-11-04T13:57:06.201Z,20.92
2022-11-04T13:59:33.447Z,20.67
2022-11-04T14:02:12.816Z,20.66
2022-11-04T14:04:44.007Z,20.58
2022-11-04T14:07:14.404Z,20.54
2022-11-04T14:09:44.241Z,20.29
2022-11-04T14:12:10.963Z,19.97
2022-11-04T14:14:39.206Z,19.90
2022-11-04T14:17:36.251Z,19.93
2022-11-04T14:20:06.694Z,19.74
2022-11-04T14:22:34.725Z,19.46
2022-11-04T14:25:19.978Z,19.50
2022-11-04T14:27:52.440Z,19.55
2022-11-04T14:30:54.077Z,19.45
2022-11-04T14:33:54.088Z,19.55
2022-11-04T14:36:21.066Z,19.59
2022-11-04T14:39:02.098Z,19.61
2022-11-04T14:41:28.812Z,19.63
2022-11-04T14:43:57.472Z,19.42
2022-11-04T14:46:30.675Z,19.40
2022-11-04T14:49:01.124Z,19.36
2022-11-04T14:51:33.573Z,19.17
2022-11-04T14:54:22.545Z,19.03
2022-11-04T14:56:49.288Z,18.94
2022-11-04T14:59:42.497Z,18.84
2022-11-04T15:02:20.276Z,18.76
2022-11-04T15:04:53.022Z,18.60
2022-11-04T15:07:26.433Z,18.56
2022-11-04T15:09:53.197Z,18.33
2022-11-04T15:12:39.153Z,18.03
2022-11-04T15:15:29.481Z,17.75
2022-11-04T15:18:01.873Z,17.54
2022-11-04T15:20:33.134Z,17.43
2022-11-04T15:23:02.029Z,17.41
2022-11-04T15:25:29.047Z,17.41
2022-11-04T15:27:56.850Z,17.27
2022-11-04T15:30:29.392Z,17.18
2022-11-04T15:33:01.997Z,17.00
2022-11-04T15:35:31.105Z,16.88
2022-11-04T15:38:00.187Z,16.72
2022-11-04T15:40:37.871Z,16.55
2022-11-04T15:43:04.997Z,16.53
2022-11-04T15:45:36.584Z,16.51
2022-11-04T15:48:23.428Z,16.56
2022-11-04T15:51:18.742Z,16.75
2022-11-04T15:53:52.785Z,16.80
2022-11-04T15:56:28.154Z,16.86
2022-11-04T15:58:56.758Z,16.99
2022-11-04T16:01:24.101Z,16.96
2022-11-04T16:03:51.853Z,16.94
2022-11-04T16:06:33.778Z,17.13
2022-11-04T16:09:25.439Z,17.36
2022-11-04T16:12:11.954Z,17.44
2022-11-04T16:14:38.721Z,17.44
2022-11-04T16:17:10.791Z,17.47
2022-11-04T16:19:37.791Z,17.47
2022-11-04T16:22:09.762Z,17.46
2022-11-04T16:24:40.740Z,17.23
2022-11-04T16:27:11.478Z,17.18
2022-11-04T16:29:41.552Z,17.12
2022-11-04T16:32:19.142Z,17.10
2022-11-04T16:34:49.276Z,17.07
2022-11-04T16:37:16.083Z,16.96
2022-11-04T16:39:47.161Z,16.86
2022-11-04T16:42:14.966Z,16.77
2022-11-04T16:44:50.032Z,16.69
2022-11-04T16:47:18.666Z,16.62
2022-11-04T16:49:45.967Z,16.48
2022-11-04T16:52:16.768Z,16.33
2022-11-04T16:54:43.585Z,16.09
2022-11-04T16:57:11.994Z,15.96
2022-11-04T16:59:39.205Z,15.87
2022-11-04T17:02:23.999Z,15.80
2022-11-04T17:04:50.889Z,15.52
2022-11-04T17:07:17.705Z,15.36
2022-11-04T17:09:44.465Z,15.17
2022-11-04T17:12:11.319Z,15.10
2022-11-04T17:14:38.443Z,15.00
2022-11-04T17:17:06.052Z,14.85
2022-11-04T17:19:34.715Z,14.86
2022-11-04T17:22:04.204Z,14.76
2022-11-04T17:24:31.029Z,14.58
2022-11-04T17:27:00.937Z,14.61
2022-11-04T17:29:30.030Z,14.46
2022-11-04T17:31:57.037Z,14.38
2022-11-04T17:34:25.939Z,14.17
2022-11-04T17:36:55.751Z,14.10
2022-11-04T17:39:22.480Z,14.06
2022-11-04T17:42:07.767Z,13.96
2022-11-04T17:44:34.522Z,13.78
2022-11-04T17:47:01.280Z,13.72
2022-11-04T17:49:28.491Z,13.71
2022-11-04T17:52:00.645Z,13.50
2022-11-04T17:54:29.739Z,13.24
2022-11-04T17:56:57.434Z,13.23
2022-11-04T17:59:25.010Z,13.23
2022-11-04T18:01:52.137Z,12.91
2022-11-04T18:04:23.504Z,12.74
2022-11-04T18:06:51.032Z,12.70
2022-11-04T18:09:18.550Z,12.56
2022-11-04T18:12:04.224Z,12.56
2022-11-04T18:14:31.170Z,12.54
2022-11-04T18:16:58.010Z,12.53
2022-11-04T18:19:26.373Z,12.63
2022-11-04T18:21:53.025Z,12.68
2022-11-04T18:24:20.037Z,12.71
2022-11-04T18:26:47.413Z,12.71
2022-11-04T18:29:14.557Z,12.71
2022-11-04T18:31:47.795Z,12.74
2022-11-04T18:34:17.884Z,12.66
2022-11-04T18:36:45.552Z,12.53
2022-11-04T18:39:14.563Z,12.54
2022-11-04T18:41:41.648Z,12.50
2022-11-04T18:44:09.476Z,12.49
2022-11-04T18:46:36.239Z,12.44
2022-11-04T18:49:03.026Z,12.39
2022-11-04T18:51:29.984Z,12.30
2022-11-04T18:53:56.727Z,12.25
2022-11-04T18:56:23.513Z,12.09
2022-11-04T18:58:50.414Z,12.04
2022-11-04T19:01:26.077Z,12.09
2022-11-04T19:03:52.963Z,12.18
2022-11-04T19:06:22.155Z,12.22
2022-11-04T19:08:50.605Z,12.21
2022-11-04T19:11:20.567Z,12.09
2022-11-04T19:13:52.478Z,11.98
2022-11-04T19:16:19.678Z,11.93
2022-11-04T19:18:49.342Z,11.82
2022-11-04T19:21:18.358Z,11.73
2022-11-04T19:23:45.318Z,11.75
2022-11-04T19:26:15.657Z,11.75
2022-11-04T19:28:48.258Z,11.70
2022-11-04T19:31:18.294Z,11.44
2022-11-04T19:33:46.790Z,11.40
2022-11-04T19:36:14.979Z,11.45
2022-11-04T19:38:41.840Z,11.46
2022-11-04T19:41:32.569Z,11.44
2022-11-04T19:44:00.707Z,11.45
2022-11-04T19:46:27.976Z,11.52
2022-11-04T19:48:56.312Z,11.56
2022-11-04T19:51:26.637Z,11.51
2022-11-04T19:53:57.595Z,11.46
2022-11-04T19:56:24.704Z,11.43
2022-11-04T19:58:51.531Z,11.46
2022-11-04T20:01:19.062Z,11.45
2022-11-04T20:03:45.944Z,11.57
2022-11-04T20:06:14.573Z,11.39
2022-11-04T20:08:42.158Z,11.43
2022-11-04T20:11:09.259Z,11.49
2022-11-04T20:13:44.920Z,11.49
2022-11-04T20:16:14.602Z,11.41
2022-11-04T20:18:41.698Z,11.36
2022-11-04T20:21:08.545Z,11.42
2022-11-04T20:23:36.413Z,11.40
2022-11-04T20:26:32.829Z,11.43
2022-11-04T20:28:59.630Z,11.40
2022-11-04T20:31:28.618Z,11.33
2022-11-04T20:33:56.298Z,11.30
2022-11-04T20:36:26.097Z,11.37
2022-11-04T20:39:00.787Z,11.44
2022-11-04T20:41:27.868Z,11.29
2022-11-04T20:43:58.445Z,11.21
2022-11-04T20:46:27.825Z,11.16
2022-11-04T20:48:55.204Z,11.06
2022-11-04T20:51:30.192Z,11.05
2022-11-04T20:54:00.465Z,10.74
2022-11-04T20:56:31.357Z,10.77
2022-11-04T20:58:59.975Z,10.53
2022-11-04T21:01:30.293Z,10.58
2022-11-04T21:04:04.839Z,10.65
2022-11-04T21:06:32.779Z,10.75
2022-11-04T21:09:08.993Z,10.79
2022-11-04T21:11:35.868Z,10.82
2022-11-04T21:14:04.670Z,10.87
2022-11-04T21:16:31.843Z,10.97
2022-11-04T21:18:58.844Z,10.93
2022-11-04T21:21:28.426Z,10.90
2022-11-04T21:23:59.197Z,10.82
2022-11-04T21:26:28.551Z,10.79
2022-11-04T21:28:56.799Z,10.91
2022-11-04T21:31:24.396Z,10.85
2022-11-04T21:33:52.035Z,10.89
2022-11-04T21:36:20.026Z,10.97
2022-11-04T21:38:46.908Z,10.93
2022-11-04T21:41:16.329Z,10.89
2022-11-04T21:43:43.122Z,10.91
2022-11-04T21:46:13.338Z,10.73
2022-11-04T21:48:41.214Z,10.75
2022-11-04T21:51:10.543Z,10.78
2022-11-04T21:53:37.509Z,10.86
2022-11-04T21:56:05.418Z,10.88
2022-11-04T21:58:32.652Z,10.79
2022-11-04T22:00:59.421Z,10.81
2022-11-04T22:03:26.802Z,10.85
2022-11-04T22:06:05.219Z,10.68
2022-11-04T22:08:32.665Z,10.78
2022-11-04T22:11:09.972Z,10.81
2022-11-04T22:13:36.783Z,10.81
2022-11-04T22:16:17.925Z,10.90
2022-11-04T22:18:45.556Z,10.80
2022-11-04T22:21:15.590Z,10.87
2022-11-04T22:23:42.825Z,10.86
2022-11-04T22:26:19.076Z,10.82
2022-11-04T22:28:46.144Z,10.82
2022-11-04T22:31:23.180Z,10.85
2022-11-04T22:33:51.147Z,10.93
2022-11-04T22:36:18.141Z,10.80
2022-11-04T22:38:45.029Z,10.83
2022-11-04T22:41:21.191Z,10.89
2022-11-04T22:43:47.975Z,10.88
2022-11-04T22:46:17.123Z,10.81
2022-11-04T22:48:45.212Z,10.85
2022-11-04T22:51:12.258Z,10.95
2022-11-04T22:53:39.540Z,10.69
2022-11-04T22:56:08.013Z,10.69
2022-11-04T22:58:34.727Z,10.67
2022-11-04T23:01:07.595Z,10.48
2022-11-04T23:03:34.530Z,10.49
2022-11-04T23:06:03.139Z,10.48
2022-11-04T23:08:30.879Z,10.47
2022-11-04T23:11:25.746Z,10.46
2022-11-04T23:14:20.420Z,10.47
2022-11-04T23:17:08.647Z,10.43
2022-11-04T23:19:39.021Z,10.45
2022-11-04T23:22:25.298Z,10.50
2022-11-04T23:25:09.740Z,10.62
2022-11-04T23:28:06.587Z,10.66
2022-11-04T23:30:39.370Z,10.61
2022-11-04T23:33:15.945Z,10.63
2022-11-04T23:36:07.622Z,10.61
2022-11-04T23:38:35.574Z,10.62
2022-11-04T23:41:24.263Z,10.49
2022-11-04T23:43:51.122Z,10.51
2022-11-04T23:46:42.211Z,10.45
2022-11-04T23:49:13.339Z,10.50
2022-11-04T23:51:59.206Z,10.48
2022-11-04T23:54:44.437Z,10.45
2022-11-04T23:57:34.365Z,10.48
